Time;durP1;ratioP1;P1;durP2;ratioP2;P2;SDS_P1;SDS_P2;PMS_P1;PMS_P2;Temp;Humidity;BMP_temperature;BMP_pressure;BME280_temperature;BME280_humidity;BME280_pressure;Samples;Min_cycle;Max_cycle;Signal;HPM_P1;HPM_P2
2021/12/06 00:02:18;;;;;;;73.45;31.85;;;2.00;99.90;;;;;;4938118;28;20050;-86
2021/12/06 00:04:44;;;;;;;78.25;32.25;;;2.00;99.90;;;;;;4939307;28;20030;-86
2021/12/06 00:07:18;;;;;;;75.78;30.25;;;2.00;99.90;;;;;;4934611;28;21233;-84
2021/12/06 00:09:44;;;;;;;84.68;33.42;;;2.00;99.90;;;;;;4960795;28;20031;-84
2021/12/06 00:12:11;;;;;;;78.65;33.92;;;2.00;99.90;;;;;;4916197;28;20058;-84
2021/12/06 00:14:40;;;;;;;78.53;31.42;;;2.00;99.90;;;;;;4932521;28;20379;-85
2021/12/06 00:17:10;;;;;;;80.18;33.78;;;2.00;99.90;;;;;;4921202;28;20050;-85
2021/12/06 00:19:36;;;;;;;77.05;32.60;;;2.00;99.90;;;;;;4930983;28;20138;-85
2021/12/06 00:22:05;;;;;;;77.90;32.60;;;2.00;99.90;;;;;;4942584;28;20110;-85
2021/12/06 00:24:31;;;;;;;91.70;34.83;;;2.00;99.90;;;;;;4944943;28;20718;-85
2021/12/06 00:26:56;;;;;;;85.57;33.17;;;2.00;99.90;;;;;;4927381;28;20050;-85
2021/12/06 00:29:22;;;;;;;88.43;36.47;;;2.00;99.90;;;;;;4920497;28;20046;-85
2021/12/06 00:31:48;;;;;;;93.53;35.28;;;2.10;99.90;;;;;;4932489;28;20488;-85
2021/12/06 00:34:17;;;;;;;91.53;35.58;;;2.00;99.90;;;;;;4943845;28;20574;-85
2021/12/06 00:36:53;;;;;;;86.90;34.28;;;2.00;99.90;;;;;;4931195;28;20314;-85
2021/12/06 00:39:20;;;;;;;84.72;33.38;;;2.10;99.90;;;;;;4949780;28;20074;-86
2021/12/06 00:41:47;;;;;;;85.05;33.92;;;2.00;99.90;;;;;;4946447;28;20043;-85
2021/12/06 00:44:13;;;;;;;92.07;35.20;;;2.10;99.90;;;;;;4920125;28;20105;-86
2021/12/06 00:46:39;;;;;;;79.35;33.13;;;2.10;99.90;;;;;;4931162;28;20047;-85
2021/12/06 00:49:07;;;;;;;81.10;33.40;;;2.10;99.90;;;;;;4914278;28;20044;-85
2021/12/06 00:51:33;;;;;;;89.43;34.38;;;2.10;99.90;;;;;;4944762;28;20050;-85
2021/12/06 00:53:59;;;;;;;89.85;33.25;;;2.10;99.90;;;;;;4926504;28;20049;-86
2021/12/06 00:56:24;;;;;;;87.85;33.55;;;2.10;99.90;;;;;;4928024;28;20035;-85
2021/12/06 00:58:50;;;;;;;93.97;34.70;;;2.10;99.90;;;;;;4932833;28;20043;-85
2021/12/06 01:01:16;;;;;;;88.75;34.08;;;2.10;99.90;;;;;;4902466;28;20071;-85
2021/12/06 01:03:42;;;;;;;84.78;34.33;;;2.10;99.90;;;;;;4937901;28;20045;-84
2021/12/06 01:06:10;;;;;;;86.97;35.10;;;2.10;99.90;;;;;;4923988;28;20042;-85
2021/12/06 01:08:36;;;;;;;93.05;33.80;;;2.10;99.90;;;;;;4949718;28;20533;-84
2021/12/06 01:11:03;;;;;;;85.05;34.65;;;2.10;99.90;;;;;;4921327;28;20093;-85
2021/12/06 01:13:29;;;;;;;86.65;32.85;;;2.20;99.90;;;;;;4946510;28;20039;-85
2021/12/06 01:15:56;;;;;;;93.07;34.53;;;2.20;99.90;;;;;;4935096;28;20327;-86
2021/12/06 01:18:22;;;;;;;76.43;33.70;;;2.10;99.90;;;;;;4942822;28;20041;-86
2021/12/06 01:21:11;;;;;;;84.78;33.10;;;2.10;99.90;;;;;;4947705;28;20426;-85
2021/12/06 01:23:52;;;;;;;88.25;33.38;;;2.20;99.90;;;;;;4935025;28;20078;-85
2021/12/06 01:39:11;;;;;;;84.35;33.15;;;2.20;99.90;;;;;;4937924;28;20055;-85
2021/12/06 01:39:55;;;;;;;99.57;34.47;;;2.20;99.90;;;;;;4948533;28;20043;-84
2021/12/06 01:42:21;;;;;;;91.50;34.22;;;2.20;99.90;;;;;;4959010;28;20073;-85
2021/12/06 01:44:53;;;;;;;91.47;33.80;;;2.20;99.90;;;;;;4912648;28;20113;-85
2021/12/06 01:47:24;;;;;;;97.32;34.50;;;2.20;99.90;;;;;;4934849;28;20116;-85
2021/12/06 01:49:53;;;;;;;83.60;32.75;;;2.20;99.90;;;;;;4962142;28;20054;-85
2021/12/06 01:52:26;;;;;;;103.50;35.88;;;2.20;99.90;;;;;;4946332;28;20042;-85
2021/12/06 01:54:53;;;;;;;94.93;35.25;;;2.10;99.90;;;;;;4958511;28;20042;-86
2021/12/06 01:57:18;;;;;;;88.40;33.78;;;2.20;99.90;;;;;;4912893;28;20027;-85
2021/12/06 01:59:45;;;;;;;104.55;35.75;;;2.20;99.90;;;;;;4943216;28;20045;-86
2021/12/06 02:02:11;;;;;;;101.82;36.65;;;2.20;99.90;;;;;;4943247;28;20042;-85
2021/12/06 02:04:40;;;;;;;95.70;35.72;;;2.20;99.90;;;;;;4920326;28;20066;-85
2021/12/06 02:07:08;;;;;;;94.20;35.58;;;2.20;99.90;;;;;;4912968;28;20055;-85
2021/12/06 02:09:34;;;;;;;97.18;34.90;;;2.20;99.90;;;;;;4947318;28;20043;-84
2021/12/06 02:12:02;;;;;;;111.10;38.65;;;2.20;99.90;;;;;;4913049;28;20047;-85
2021/12/06 02:17:08;;;;;;;98.03;35.88;;;2.20;99.90;;;;;;4939537;28;20047;-84
2021/12/06 02:19:40;;;;;;;98.72;35.35;;;2.20;99.90;;;;;;4951090;28;20054;-84
2021/12/06 02:22:12;;;;;;;113.63;38.28;;;2.20;99.90;;;;;;4940021;28;20620;-84
2021/12/06 02:24:38;;;;;;;112.60;37.65;;;2.20;99.90;;;;;;4936569;28;20075;-84
2021/12/06 02:27:07;;;;;;;111.13;37.78;;;2.20;99.90;;;;;;4913337;28;20109;-84
2021/12/06 02:29:33;;;;;;;113.13;37.22;;;2.20;99.90;;;;;;4928421;28;20039;-84
2021/12/06 02:32:00;;;;;;;109.30;36.40;;;2.10;99.90;;;;;;4942172;28;20053;-84
2021/12/06 02:34:25;;;;;;;118.43;39.50;;;2.20;99.90;;;;;;4910362;28;20053;-85
2021/12/06 02:36:51;;;;;;;118.10;38.72;;;2.20;99.90;;;;;;4923806;28;20047;-85
2021/12/06 02:39:22;;;;;;;112.25;38.00;;;2.20;99.90;;;;;;4935406;28;20110;-83
2021/12/06 02:41:51;;;;;;;98.50;35.58;;;2.10;99.90;;;;;;4925815;28;20047;-83
2021/12/06 02:44:17;;;;;;;108.90;37.13;;;2.20;99.90;;;;;;4914309;28;20039;-84
2021/12/06 02:46:43;;;;;;;113.15;37.08;;;2.20;99.90;;;;;;4938533;28;20051;-84
2021/12/06 02:49:09;;;;;;;114.13;37.85;;;2.20;99.90;;;;;;4922924;28;20058;-84
2021/12/06 02:51:35;;;;;;;118.00;37.85;;;2.20;99.90;;;;;;4930642;28;20046;-82
2021/12/06 02:54:01;;;;;;;108.30;37.60;;;2.20;99.90;;;;;;4933157;28;20070;-84
2021/12/06 02:56:39;;;;;;;114.93;35.45;;;2.20;99.90;;;;;;4913625;28;20383;-84
2021/12/06 02:59:08;;;;;;;107.68;35.42;;;2.20;99.90;;;;;;4911626;28;20046;-82
2021/12/06 03:01:38;;;;;;;130.55;39.75;;;2.20;99.90;;;;;;4947716;28;20043;-84
2021/12/06 03:04:05;;;;;;;120.72;37.20;;;2.20;99.90;;;;;;4942785;28;20046;-85
2021/12/06 03:06:32;;;;;;;141.60;40.75;;;2.20;99.90;;;;;;4950087;28;20046;-85
2021/12/06 03:09:16;;;;;;;139.80;39.72;;;2.30;99.90;;;;;;4945717;28;20078;-84
2021/12/06 03:11:53;;;;;;;130.75;39.63;;;2.30;99.90;;;;;;4946969;28;20039;-84
2021/12/06 03:14:22;;;;;;;150.00;40.45;;;2.20;99.90;;;;;;4938913;28;20557;-84
2021/12/06 03:16:48;;;;;;;141.23;39.38;;;2.30;99.90;;;;;;4950293;28;20050;-84
2021/12/06 03:19:14;;;;;;;127.13;39.40;;;2.30;99.90;;;;;;4934300;28;20042;-84
2021/12/06 03:21:40;;;;;;;125.68;39.78;;;2.30;99.90;;;;;;4921649;28;20445;-84
2021/12/06 03:24:06;;;;;;;137.45;41.05;;;2.30;99.90;;;;;;4945146;28;20109;-84
2021/12/06 03:26:33;;;;;;;142.45;41.38;;;2.30;99.90;;;;;;4920963;29;20066;-84
2021/12/06 03:29:00;;;;;;;138.07;40.90;;;2.40;99.90;;;;;;4917625;28;20039;-85
2021/12/06 03:31:26;;;;;;;131.98;39.30;;;2.30;99.90;;;;;;4935235;28;20512;-84
2021/12/06 03:33:55;;;;;;;139.43;40.13;;;2.40;99.90;;;;;;4943397;28;20569;-85
2021/12/06 03:36:23;;;;;;;130.82;41.75;;;2.30;99.90;;;;;;4959611;28;20066;-85
2021/12/06 03:38:50;;;;;;;116.05;39.25;;;2.40;99.90;;;;;;4928300;28;20043;-85
2021/12/06 03:41:18;;;;;;;150.73;42.20;;;2.30;99.90;;;;;;4918066;28;20470;-85
2021/12/06 03:43:43;;;;;;;166.15;42.53;;;2.30;99.90;;;;;;4947267;28;20063;-85
2021/12/06 03:46:13;;;;;;;152.90;42.85;;;2.30;99.90;;;;;;4921080;28;20035;-86
2021/12/06 03:48:39;;;;;;;150.90;42.95;;;2.30;99.90;;;;;;4947652;28;20509;-85
2021/12/06 03:51:05;;;;;;;128.70;40.75;;;2.30;99.90;;;;;;4926384;28;20039;-85
2021/12/06 03:53:31;;;;;;;134.75;42.25;;;2.40;99.90;;;;;;4925526;28;20070;-85
2021/12/06 03:55:58;;;;;;;139.45;42.78;;;2.30;99.90;;;;;;4954051;28;20039;-85
2021/12/06 03:58:24;;;;;;;160.02;41.42;;;2.40;99.90;;;;;;4904989;28;20050;-85
2021/12/06 04:00:50;;;;;;;152.38;43.83;;;2.40;99.90;;;;;;4925777;28;20035;-85
2021/12/06 04:03:19;;;;;;;153.95;43.28;;;2.40;99.90;;;;;;4943631;28;20226;-84
2021/12/06 04:05:45;;;;;;;168.90;43.85;;;2.40;99.90;;;;;;4942960;28;20059;-84
2021/12/06 04:08:11;;;;;;;134.80;42.17;;;2.40;99.90;;;;;;4931998;28;20135;-86
2021/12/06 04:10:37;;;;;;;142.88;42.67;;;2.40;99.90;;;;;;4955666;28;20070;-85
2021/12/06 04:13:03;;;;;;;153.27;44.70;;;2.40;99.90;;;;;;4916856;28;20039;-84
2021/12/06 04:15:29;;;;;;;170.18;44.50;;;2.40;99.90;;;;;;4928971;28;20047;-85
2021/12/06 04:17:59;;;;;;;159.60;43.60;;;2.40;99.90;;;;;;4941303;28;20042;-85
2021/12/06 04:20:26;;;;;;;174.15;45.78;;;2.40;99.90;;;;;;4935757;28;20049;-85
2021/12/06 04:22:53;;;;;;;134.40;43.08;;;2.40;99.90;;;;;;4917081;28;20050;-85
2021/12/06 04:25:19;;;;;;;156.80;43.80;;;2.50;99.90;;;;;;4942037;28;20065;-85
2021/12/06 04:27:54;;;;;;;139.20;42.72;;;2.50;99.90;;;;;;4915826;28;20675;-84
2021/12/06 04:30:22;;;;;;;165.23;42.22;;;2.50;99.90;;;;;;4915652;28;20055;-84
2021/12/06 04:32:50;;;;;;;149.32;44.35;;;2.50;99.90;;;;;;4926540;28;20038;-84
2021/12/06 04:35:15;;;;;;;162.43;44.45;;;2.50;99.90;;;;;;4915099;28;20505;-84
2021/12/06 04:37:41;;;;;;;145.65;44.47;;;2.50;99.90;;;;;;4941705;28;20274;-85
2021/12/06 04:40:09;;;;;;;136.10;43.35;;;2.50;99.90;;;;;;4907979;28;20122;-84
2021/12/06 04:42:35;;;;;;;119.35;38.90;;;2.50;99.90;;;;;;4934670;28;20049;-84
2021/12/06 04:45:01;;;;;;;125.47;39.53;;;2.50;99.90;;;;;;4932693;28;20031;-85
2021/12/06 04:47:27;;;;;;;107.82;34.97;;;2.40;99.90;;;;;;4936727;28;20129;-84
2021/12/06 04:49:52;;;;;;;109.65;38.33;;;2.50;99.90;;;;;;4942297;28;20118;-85
2021/12/06 04:52:19;;;;;;;123.68;38.63;;;2.50;99.90;;;;;;4914665;28;20035;-85
2021/12/06 04:54:50;;;;;;;123.95;37.17;;;2.50;99.90;;;;;;4919992;28;20047;-85
2021/12/06 04:57:22;;;;;;;129.95;37.95;;;2.50;99.90;;;;;;4929748;28;20130;-85
2021/12/06 04:59:54;;;;;;;134.40;37.78;;;2.50;99.90;;;;;;4936766;28;20070;-84
2021/12/06 05:02:25;;;;;;;124.85;35.50;;;2.50;99.90;;;;;;4937983;28;20505;-84
2021/12/06 05:04:56;;;;;;;130.05;37.95;;;2.50;99.90;;;;;;4948765;28;20042;-84
2021/12/06 05:07:27;;;;;;;143.30;40.38;;;2.50;99.90;;;;;;4939555;28;20454;-85
2021/12/06 05:09:53;;;;;;;140.23;39.38;;;2.50;99.90;;;;;;4951661;28;20039;-84
2021/12/06 05:12:22;;;;;;;140.05;40.03;;;2.50;99.90;;;;;;4918306;28;20090;-84
2021/12/06 05:14:48;;;;;;;141.15;39.00;;;2.50;99.90;;;;;;4968352;28;20101;-85
2021/12/06 05:17:14;;;;;;;146.18;40.28;;;2.50;99.90;;;;;;4910337;28;20458;-85
2021/12/06 05:19:40;;;;;;;152.50;41.03;;;2.50;99.90;;;;;;4925316;28;20038;-85
2021/12/06 05:22:06;;;;;;;146.00;37.97;;;2.50;99.90;;;;;;4919570;28;20091;-84
2021/12/06 05:24:32;;;;;;;156.63;40.88;;;2.60;99.90;;;;;;4925452;28;20051;-84
2021/12/06 05:26:59;;;;;;;142.65;39.30;;;2.60;99.90;;;;;;4951304;28;20067;-84
2021/12/06 05:29:27;;;;;;;140.43;38.42;;;2.60;99.90;;;;;;4920967;28;20108;-84
2021/12/06 05:31:58;;;;;;;128.02;38.80;;;2.50;99.90;;;;;;4935886;28;20515;-84
2021/12/06 05:34:43;;;;;;;136.35;37.65;;;2.50;99.90;;;;;;4935958;28;20039;-85
2021/12/06 05:37:12;;;;;;;129.93;37.03;;;2.50;99.90;;;;;;4934837;29;20039;-84
2021/12/06 05:39:39;;;;;;;147.43;40.08;;;2.60;99.90;;;;;;4946899;28;20035;-85
2021/12/06 05:42:08;;;;;;;141.43;38.67;;;2.60;99.90;;;;;;4939929;28;20091;-85
2021/12/06 05:44:35;;;;;;;150.73;39.17;;;2.60;99.90;;;;;;4942689;28;20043;-82
2021/12/06 05:47:01;;;;;;;153.57;39.60;;;2.50;99.90;;;;;;4928318;28;20051;-85
2021/12/06 05:49:28;;;;;;;177.73;40.40;;;2.60;99.90;;;;;;4921996;28;20047;-85
2021/12/06 05:51:54;;;;;;;144.40;39.38;;;2.60;99.90;;;;;;4910209;28;20053;-84
2021/12/06 05:54:20;;;;;;;137.55;38.42;;;2.60;99.90;;;;;;4917594;28;20137;-84
2021/12/06 05:56:46;;;;;;;146.77;37.35;;;2.60;99.90;;;;;;4925464;28;20066;-85
2021/12/06 05:59:14;;;;;;;188.48;40.35;;;2.60;99.90;;;;;;4953671;28;20509;-85
2021/12/06 06:01:40;;;;;;;164.65;39.28;;;2.60;99.90;;;;;;4942584;28;20042;-84
2021/12/06 06:04:06;;;;;;;166.60;38.40;;;2.60;99.90;;;;;;4923427;28;20042;-84
2021/12/06 06:06:34;;;;;;;140.60;38.45;;;2.60;99.90;;;;;;4911871;28;20138;-83
2021/12/06 06:09:01;;;;;;;124.63;34.90;;;2.60;99.90;;;;;;4933535;28;20236;-85
2021/12/06 06:11:27;;;;;;;140.57;36.85;;;2.60;99.90;;;;;;4934574;28;20043;-84
2021/12/06 06:13:53;;;;;;;126.15;37.80;;;2.60;99.90;;;;;;4903419;28;20369;-84
2021/12/06 06:16:21;;;;;;;145.63;35.72;;;2.60;99.90;;;;;;4933414;28;20110;-85
2021/12/06 06:18:50;;;;;;;152.63;37.33;;;2.60;99.90;;;;;;4922127;28;20038;-84
2021/12/06 06:21:18;;;;;;;154.85;37.17;;;2.60;99.90;;;;;;4950921;28;20449;-84
2021/12/06 06:23:44;;;;;;;136.93;37.28;;;2.60;99.90;;;;;;4916088;28;20054;-84
2021/12/06 06:26:10;;;;;;;144.65;36.13;;;2.60;99.90;;;;;;4937308;28;20118;-83
2021/12/06 06:28:35;;;;;;;142.35;37.15;;;2.60;99.90;;;;;;4905491;28;20123;-85
2021/12/06 06:31:02;;;;;;;129.73;35.20;;;2.60;99.90;;;;;;4926993;28;20039;-84
2021/12/06 06:33:27;;;;;;;135.80;38.22;;;2.60;99.90;;;;;;4939215;28;20479;-83
2021/12/06 06:35:56;;;;;;;134.95;34.97;;;2.60;99.90;;;;;;4948436;28;20058;-84
2021/12/06 06:38:22;;;;;;;149.73;37.88;;;2.60;99.90;;;;;;4924304;28;20272;-84
2021/12/06 06:40:49;;;;;;;162.10;37.15;;;2.60;99.90;;;;;;4962803;28;20035;-84
2021/12/06 06:43:16;;;;;;;161.32;38.70;;;2.60;99.90;;;;;;4936800;28;20041;-84
2021/12/06 06:45:42;;;;;;;137.50;35.75;;;2.60;99.90;;;;;;4917920;28;20035;-84
2021/12/06 06:48:08;;;;;;;147.50;37.15;;;2.60;99.90;;;;;;4937244;28;20070;-84
2021/12/06 06:50:33;;;;;;;164.52;37.60;;;2.60;99.90;;;;;;4948497;28;20042;-84
2021/12/06 06:52:59;;;;;;;137.00;34.05;;;2.60;99.90;;;;;;4922436;28;20460;-83
2021/12/06 06:55:25;;;;;;;175.45;36.95;;;2.60;99.90;;;;;;4939149;28;20121;-84
2021/12/06 06:57:53;;;;;;;174.05;38.38;;;2.60;99.90;;;;;;4915389;28;20210;-84
2021/12/06 07:00:28;;;;;;;144.95;36.38;;;2.60;99.90;;;;;;4923662;28;20062;-83
2021/12/06 07:02:55;;;;;;;163.10;38.78;;;2.60;99.90;;;;;;4949287;28;20039;-85
2021/12/06 07:05:22;;;;;;;162.70;37.88;;;2.60;99.90;;;;;;4920333;28;20046;-83
2021/12/06 07:07:47;;;;;;;139.73;35.88;;;2.60;99.90;;;;;;4937520;28;20047;-85
2021/12/06 07:10:13;;;;;;;132.93;35.95;;;2.70;99.90;;;;;;4948363;28;20089;-85
2021/12/06 07:12:45;;;;;;;148.82;36.33;;;2.60;99.90;;;;;;4920622;28;20034;-85
2021/12/06 07:15:13;;;;;;;147.45;36.95;;;2.60;99.90;;;;;;4948428;28;20051;-84
2021/12/06 07:17:40;;;;;;;138.57;34.50;;;2.60;99.90;;;;;;4943286;28;20038;-83
2021/12/06 07:20:08;;;;;;;125.97;35.17;;;2.60;99.90;;;;;;4964170;28;20370;-84
2021/12/06 07:22:36;;;;;;;132.32;35.80;;;2.60;99.90;;;;;;4930995;28;20454;-84
2021/12/06 07:25:07;;;;;;;121.25;34.50;;;2.60;99.90;;;;;;4940294;28;20042;-83
2021/12/06 07:27:36;;;;;;;110.60;32.20;;;2.60;99.90;;;;;;4910383;28;20083;-83
2021/12/06 07:30:04;;;;;;;132.80;33.22;;;2.60;99.90;;;;;;4933317;28;20260;-84
2021/12/06 07:32:30;;;;;;;117.05;34.20;;;2.60;99.90;;;;;;4946077;28;20072;-85
2021/12/06 07:34:56;;;;;;;122.63;33.22;;;2.60;99.90;;;;;;4928901;28;20047;-84
2021/12/06 07:37:22;;;;;;;124.30;33.53;;;2.60;99.90;;;;;;4949512;28;20058;-84
2021/12/06 07:39:48;;;;;;;106.78;31.88;;;2.60;99.90;;;;;;4945140;28;20042;-84
2021/12/06 07:42:14;;;;;;;108.30;31.08;;;2.60;99.90;;;;;;4950563;28;20039;-83
2021/12/06 07:44:41;;;;;;;110.63;31.73;;;2.60;99.90;;;;;;4917453;28;20039;-84
2021/12/06 07:47:09;;;;;;;101.55;30.52;;;2.50;99.90;;;;;;4904858;28;20413;-83
2021/12/06 07:49:37;;;;;;;117.18;30.50;;;2.50;99.90;;;;;;4938371;28;20140;-84
2021/12/06 07:52:04;;;;;;;108.53;32.58;;;2.60;99.90;;;;;;4940136;28;20039;-84
2021/12/06 07:54:30;;;;;;;110.22;31.25;;;2.50;99.90;;;;;;4927430;28;20051;-85
2021/12/06 07:56:56;;;;;;;109.93;32.03;;;2.50;99.90;;;;;;4926146;28;20051;-84
2021/12/06 07:59:22;;;;;;;103.00;30.85;;;2.50;99.90;;;;;;4939633;28;20133;-84
2021/12/06 08:01:48;;;;;;;101.75;30.23;;;2.50;99.90;;;;;;4942528;28;20042;-84
2021/12/06 08:04:14;;;;;;;102.85;31.38;;;2.50;99.90;;;;;;4925058;28;20039;-84
2021/12/06 08:06:40;;;;;;;114.40;31.35;;;2.50;99.90;;;;;;4932726;28;20082;-83
2021/12/06 08:09:06;;;;;;;107.13;31.42;;;2.50;99.90;;;;;;4943086;28;20413;-83
2021/12/06 08:11:32;;;;;;;98.85;30.50;;;2.50;99.90;;;;;;4972898;28;20019;-85
2021/12/06 08:13:58;;;;;;;95.93;29.50;;;2.50;99.90;;;;;;4933878;28;20051;-85
2021/12/06 08:16:29;;;;;;;116.25;31.77;;;2.50;99.90;;;;;;4917043;28;20039;-84
2021/12/06 08:18:55;;;;;;;95.50;30.30;;;2.50;99.90;;;;;;4945999;28;20500;-85
2021/12/06 08:21:23;;;;;;;94.13;29.17;;;2.50;99.90;;;;;;4968834;23;20040;-85
2021/12/06 08:24:00;;;;;;;94.13;30.00;;;2.50;99.90;;;;;;4910927;29;20410;-85
2021/12/06 08:26:30;;;;;;;99.55;31.15;;;2.50;99.90;;;;;;4925592;29;20040;-86
2021/12/06 08:28:57;;;;;;;93.43;30.50;;;2.50;99.90;;;;;;4918646;29;20395;-84
2021/12/06 08:31:24;;;;;;;93.07;28.08;;;2.50;99.90;;;;;;4906042;29;20046;-84
2021/12/06 08:33:53;;;;;;;103.80;31.35;;;2.50;99.90;;;;;;4912993;29;20055;-85
2021/12/06 08:36:24;;;;;;;97.05;30.25;;;2.50;99.90;;;;;;4898396;29;20469;-83
2021/12/06 08:38:50;;;;;;;94.38;28.83;;;2.50;99.90;;;;;;4897705;29;20055;-83
2021/12/06 08:41:19;;;;;;;99.20;29.65;;;2.50;99.90;;;;;;4901548;29;20035;-83
2021/12/06 08:43:46;;;;;;;96.18;30.38;;;2.40;99.90;;;;;;4914296;29;20044;-83
2021/12/06 08:46:19;;;;;;;96.05;29.98;;;2.40;99.90;;;;;;4911723;29;20044;-83
2021/12/06 08:48:47;;;;;;;91.45;29.60;;;2.40;99.90;;;;;;4917315;29;20312;-84
2021/12/06 08:51:20;;;;;;;93.45;29.95;;;2.40;99.90;;;;;;4886685;29;20040;-83
2021/12/06 08:53:49;;;;;;;88.78;30.05;;;2.40;99.90;;;;;;4894668;29;20047;-83
2021/12/06 08:56:15;;;;;;;98.95;30.38;;;2.40;99.90;;;;;;4883147;29;20442;-83
2021/12/06 08:58:42;;;;;;;94.32;29.33;;;2.40;99.90;;;;;;4883168;29;20047;-84
2021/12/06 09:01:09;;;;;;;92.50;27.02;;;2.40;99.90;;;;;;4910179;29;20047;-84
2021/12/06 09:03:36;;;;;;;75.80;26.88;;;2.50;99.90;;;;;;4917060;29;20042;-84
2021/12/06 09:06:05;;;;;;;78.97;27.60;;;2.50;99.90;;;;;;4909588;29;20055;-84
2021/12/06 09:08:32;;;;;;;90.20;27.05;;;2.50;99.90;;;;;;4933475;29;20036;-85
2021/12/06 09:10:58;;;;;;;79.43;26.48;;;2.50;99.90;;;;;;4891787;29;20185;-85
2021/12/06 09:13:26;;;;;;;85.68;28.88;;;2.40;99.90;;;;;;4890030;29;20436;-84
2021/12/06 09:15:52;;;;;;;90.15;28.30;;;2.40;99.90;;;;;;4920954;29;20048;-84
2021/12/06 09:18:20;;;;;;;89.50;27.50;;;2.40;99.90;;;;;;4918841;29;20483;-84
2021/12/06 09:20:51;;;;;;;76.38;26.13;;;2.40;99.90;;;;;;4888074;29;20054;-84
2021/12/06 09:23:18;;;;;;;76.50;26.25;;;2.40;99.90;;;;;;4913052;29;20039;-85
2021/12/06 09:25:47;;;;;;;78.78;27.70;;;2.40;99.90;;;;;;4885072;29;20097;-85
2021/12/06 09:28:15;;;;;;;78.97;27.92;;;2.40;99.90;;;;;;4918199;29;20044;-85
2021/12/06 09:30:41;;;;;;;77.03;26.95;;;2.40;99.90;;;;;;4906314;29;20040;-85
2021/12/06 09:33:09;;;;;;;86.25;28.05;;;2.40;99.90;;;;;;4928786;29;20525;-84
2021/12/06 09:35:39;;;;;;;83.70;28.65;;;2.50;99.90;;;;;;4897305;29;20075;-84
2021/12/06 09:38:06;;;;;;;86.03;28.38;;;2.50;99.90;;;;;;4916105;29;20051;-84
2021/12/06 09:40:34;;;;;;;83.13;28.15;;;2.50;99.90;;;;;;4917522;29;20043;-85
2021/12/06 09:43:02;;;;;;;75.32;28.67;;;2.50;99.90;;;;;;4925089;29;20036;-84
2021/12/06 09:45:30;;;;;;;81.05;28.63;;;2.50;99.90;;;;;;4934711;29;20122;-83
2021/12/06 09:47:59;;;;;;;85.28;29.80;;;2.60;99.90;;;;;;4916876;29;20043;-83
2021/12/06 09:50:34;;;;;;;89.32;30.13;;;2.60;99.90;;;;;;4893363;29;20044;-84
2021/12/06 09:53:04;;;;;;;86.40;29.45;;;2.60;99.90;;;;;;4933666;29;20359;-84
2021/12/06 09:55:32;;;;;;;84.80;28.27;;;2.60;99.90;;;;;;4912452;29;20044;-83
2021/12/06 09:57:58;;;;;;;84.22;30.38;;;2.60;99.90;;;;;;4914635;29;20047;-84
2021/12/06 10:00:27;;;;;;;90.00;29.70;;;2.60;99.90;;;;;;4917097;29;20044;-84
2021/12/06 10:02:54;;;;;;;80.78;30.00;;;2.60;99.90;;;;;;4915358;29;20434;-85
2021/12/06 10:05:25;;;;;;;95.43;33.70;;;2.70;99.90;;;;;;4874781;29;20035;-84
2021/12/06 10:07:52;;;;;;;116.85;37.85;;;2.70;99.90;;;;;;4908659;29;20040;-85
2021/12/06 10:10:21;;;;;;;120.07;39.15;;;2.70;99.90;;;;;;4869579;29;20079;-85
2021/12/06 10:12:52;;;;;;;102.53;37.10;;;2.60;99.90;;;;;;4908480;29;20068;-84
2021/12/06 10:15:21;;;;;;;111.60;37.03;;;2.60;99.90;;;;;;4915953;29;20031;-84
2021/12/06 10:17:47;;;;;;;99.07;33.28;;;2.60;99.90;;;;;;4909626;29;20044;-85
2021/12/06 10:20:15;;;;;;;99.60;33.10;;;2.60;99.90;;;;;;4880566;29;20554;-84
2021/12/06 10:22:50;;;;;;;82.78;31.95;;;2.60;99.90;;;;;;4892860;29;20108;-84
2021/12/06 10:25:20;;;;;;;76.65;29.17;;;2.70;99.90;;;;;;4912061;29;20040;-85
2021/12/06 10:27:58;;;;;;;74.22;28.38;;;2.60;99.90;;;;;;4894717;29;20031;-85
2021/12/06 10:30:25;;;;;;;63.92;25.52;;;2.60;99.90;;;;;;4915042;29;20061;-85
2021/12/06 10:33:04;;;;;;;70.88;25.88;;;2.60;99.90;;;;;;4885889;29;20054;-84
2021/12/06 10:35:30;;;;;;;74.45;25.17;;;2.60;99.90;;;;;;4905625;29;21126;-84
2021/12/06 10:37:58;;;;;;;68.65;26.20;;;2.60;99.90;;;;;;4889713;29;20095;-84
2021/12/06 10:40:36;;;;;;;61.78;24.48;;;2.60;99.90;;;;;;4922167;29;20482;-84
2021/12/06 10:43:07;;;;;;;75.63;26.20;;;2.60;99.90;;;;;;4928309;29;20047;-84
2021/12/06 10:45:47;;;;;;;62.90;24.48;;;2.60;99.90;;;;;;4905205;29;20044;-85
2021/12/06 10:48:16;;;;;;;61.85;23.77;;;2.70;99.90;;;;;;4897763;29;20046;-84
2021/12/06 10:50:52;;;;;;;60.28;23.30;;;2.70;99.90;;;;;;4902252;29;20491;-86
2021/12/06 10:53:38;;;;;;;60.10;22.05;;;2.60;99.90;;;;;;4907537;29;20051;-85
2021/12/06 10:56:16;;;;;;;58.72;22.02;;;2.60;99.90;;;;;;4915676;29;20065;-85
2021/12/06 10:58:47;;;;;;;55.38;23.77;;;2.60;99.90;;;;;;4909406;29;20036;-86
2021/12/06 11:01:19;;;;;;;53.45;21.80;;;2.60;99.90;;;;;;4906514;29;20043;-86
2021/12/06 11:03:51;;;;;;;55.53;22.05;;;2.60;99.90;;;;;;4900877;29;20036;-85
2021/12/06 11:06:26;;;;;;;61.50;22.60;;;2.60;99.90;;;;;;4899078;29;20043;-84
2021/12/06 11:08:56;;;;;;;50.13;21.27;;;2.70;99.90;;;;;;4917950;29;20052;-86
2021/12/06 11:11:27;;;;;;;57.20;22.70;;;2.60;99.90;;;;;;4904983;29;20060;-85
2021/12/06 11:13:57;;;;;;;49.77;22.13;;;2.70;99.90;;;;;;4904254;29;20043;-86
2021/12/06 11:16:28;;;;;;;47.67;21.00;;;2.70;99.90;;;;;;4911428;29;20048;-85
2021/12/06 11:19:09;;;;;;;52.53;22.92;;;2.70;99.90;;;;;;4914707;29;20245;-85
2021/12/06 11:21:54;;;;;;;54.08;21.10;;;2.70;99.90;;;;;;4912240;29;20395;-86
2021/12/06 11:24:23;;;;;;;51.17;21.52;;;2.80;99.90;;;;;;4907117;29;20103;-85
2021/12/06 11:27:04;;;;;;;43.70;20.45;;;2.80;99.90;;;;;;4891857;29;20154;-86
2021/12/06 11:29:33;;;;;;;47.70;22.08;;;2.80;99.90;;;;;;4911126;29;20901;-86
2021/12/06 11:32:08;;;;;;;67.65;24.25;;;2.80;99.90;;;;;;4928550;29;20040;-87
2021/12/06 11:34:45;;;;;;;60.80;23.67;;;2.70;99.90;;;;;;4929377;29;20046;-85
2021/12/06 11:37:25;;;;;;;56.65;23.80;;;2.80;99.90;;;;;;4929962;29;20043;-85
2021/12/06 11:40:04;;;;;;;66.63;25.52;;;2.80;99.90;;;;;;4893390;29;20255;-86
2021/12/06 11:42:30;;;;;;;62.42;25.13;;;2.90;99.90;;;;;;4923385;29;20048;-86
2021/12/06 11:44:56;;;;;;;67.28;25.13;;;2.90;99.90;;;;;;4885308;29;20046;-86
2021/12/06 11:47:22;;;;;;;60.22;25.48;;;2.90;99.90;;;;;;4866404;29;20044;-86
2021/12/06 11:49:50;;;;;;;65.03;26.92;;;2.90;99.90;;;;;;4884523;29;20059;-85
2021/12/06 11:52:29;;;;;;;58.45;25.58;;;3.00;99.90;;;;;;4913295;29;20094;-85
2021/12/06 11:55:02;;;;;;;65.60;26.90;;;3.00;99.90;;;;;;4909307;29;20040;-86
2021/12/06 11:57:41;;;;;;;59.40;25.92;;;3.00;99.90;;;;;;4903537;29;20035;-86
2021/12/06 12:00:18;;;;;;;62.47;26.38;;;3.00;99.90;;;;;;4914326;29;20094;-85
2021/12/06 12:02:47;;;;;;;72.93;27.45;;;3.00;99.90;;;;;;4913572;29;20118;-86
2021/12/06 12:05:25;;;;;;;72.00;27.60;;;3.10;99.90;;;;;;4897898;29;20044;-86
2021/12/06 12:08:16;;;;;;;62.38;27.25;;;3.10;99.90;;;;;;4932886;29;20044;-86
2021/12/06 12:10:49;;;;;;;59.67;28.35;;;3.10;99.90;;;;;;4898686;29;20039;-86
2021/12/06 12:13:29;;;;;;;62.65;27.88;;;3.10;99.90;;;;;;4927430;29;20043;-86
2021/12/06 12:15:59;;;;;;;61.13;25.77;;;3.20;99.90;;;;;;4919298;29;20050;-85
2021/12/06 12:18:26;;;;;;;51.78;23.73;;;3.20;99.90;;;;;;4926341;29;20123;-85
2021/12/06 12:20:56;;;;;;;51.70;22.00;;;3.30;99.90;;;;;;4887400;29;20043;-86
2021/12/06 12:23:31;;;;;;;53.38;23.25;;;3.30;99.90;;;;;;4883476;29;20510;-85
2021/12/06 12:26:07;;;;;;;57.20;24.20;;;3.30;99.90;;;;;;4915249;29;20031;-85
2021/12/06 12:28:38;;;;;;;55.65;23.63;;;3.30;99.90;;;;;;4912414;29;20040;-87
2021/12/06 12:31:11;;;;;;;48.58;21.70;;;3.30;99.90;;;;;;4888795;29;20130;-86
2021/12/06 12:33:38;;;;;;;59.10;23.67;;;3.30;99.90;;;;;;4912608;29;20048;-87
2021/12/06 12:36:12;;;;;;;49.25;22.75;;;3.20;99.90;;;;;;4879622;29;20048;-86
2021/12/06 12:38:44;;;;;;;56.63;22.75;;;3.20;99.90;;;;;;4908436;29;20042;-86
2021/12/06 12:41:14;;;;;;;62.22;22.92;;;3.20;99.90;;;;;;4904310;29;20046;-85
2021/12/06 12:43:47;;;;;;;54.47;24.02;;;3.30;99.90;;;;;;4922006;29;20043;-86
2021/12/06 12:46:22;;;;;;;60.40;23.80;;;3.30;99.90;;;;;;4916632;29;20115;-86
2021/12/06 12:48:57;;;;;;;58.70;24.33;;;3.30;99.90;;;;;;4897089;29;20106;-86
2021/12/06 12:51:32;;;;;;;63.20;25.80;;;3.30;99.90;;;;;;4932203;29;20036;-86
2021/12/06 12:54:12;;;;;;;60.10;24.63;;;3.30;99.90;;;;;;4920448;29;20062;-86
2021/12/06 12:56:45;;;;;;;68.47;28.35;;;3.30;99.90;;;;;;4902280;29;20040;-85